Time;durP1;ratioP1;P1;durP2;ratioP2;P2;SDS_P1;SDS_P2;PMS_P1;PMS_P2;Temp;Humidity;BMP_temperature;BMP_pressure;BME280_temperature;BME280_humidity;BME280_pressure;Samples;Min_cycle;Max_cycle;Signal;HPM_P1;HPM_P2
2021/06/24 00:00:57;;;;;;;1.73;1.63;;;16.40;99.90;;;;;;5036392;28;20407;-63
2021/06/24 00:03:25;;;;;;;1.50;1.40;;;16.40;99.90;;;;;;5036319;28;20421;-65
2021/06/24 00:05:51;;;;;;;1.47;1.37;;;16.30;99.90;;;;;;5035831;28;20432;-67
2021/06/24 00:08:17;;;;;;;5.20;2.10;;;16.30;99.90;;;;;;5035873;28;20458;-66
2021/06/24 00:10:46;;;;;;;2.10;2.00;;;16.20;99.90;;;;;;5035942;28;20444;-65
2021/06/24 00:13:12;;;;;;;1.80;1.70;;;16.30;99.90;;;;;;5036126;28;20170;-65
2021/06/24 00:15:39;;;;;;;1.93;1.67;;;16.30;99.90;;;;;;5036134;28;20408;-66
2021/06/24 00:18:06;;;;;;;2.40;2.20;;;16.30;99.90;;;;;;5033744;28;20460;-66
2021/06/24 00:20:32;;;;;;;2.23;2.03;;;16.30;99.90;;;;;;5035547;28;20936;-66
2021/06/24 00:22:58;;;;;;;2.23;2.00;;;16.30;99.90;;;;;;5035946;28;20760;-65
2021/06/24 00:25:23;;;;;;;1.60;1.50;;;16.20;99.90;;;;;;5035926;28;20413;-65
2021/06/24 00:27:49;;;;;;;1.90;1.80;;;16.20;99.90;;;;;;5035524;28;20208;-67
2021/06/24 00:30:16;;;;;;;1.70;1.60;;;16.20;99.90;;;;;;5035518;28;20229;-66
2021/06/24 00:32:42;;;;;;;1.73;1.63;;;16.20;99.90;;;;;;5034378;28;20208;-69
2021/06/24 00:35:09;;;;;;;1.80;1.70;;;16.20;99.90;;;;;;5035368;28;20428;-67
2021/06/24 00:37:35;;;;;;;1.90;1.80;;;16.30;99.90;;;;;;5035047;28;20460;-66
2021/06/24 00:40:03;;;;;;;1.63;1.53;;;16.20;99.90;;;;;;5035530;28;20437;-65
2021/06/24 00:42:30;;;;;;;1.87;1.73;;;16.20;99.90;;;;;;5035226;28;20420;-66
2021/06/24 00:44:57;;;;;;;1.97;1.83;;;16.20;99.90;;;;;;5035591;28;20405;-67
2021/06/24 00:47:23;;;;;;;2.83;2.10;;;16.20;99.90;;;;;;5033678;28;20421;-67
2021/06/24 00:49:49;;;;;;;2.33;2.10;;;16.20;99.90;;;;;;5035252;28;20445;-68
2021/06/24 00:52:15;;;;;;;2.30;2.20;;;16.20;99.90;;;;;;5035264;28;20471;-69
2021/06/24 00:54:40;;;;;;;1.87;1.77;;;16.20;99.90;;;;;;5035107;28;20167;-66
2021/06/24 00:57:06;;;;;;;2.03;1.83;;;16.20;99.90;;;;;;5034771;28;20284;-66
2021/06/24 00:59:34;;;;;;;2.07;1.83;;;16.20;99.90;;;;;;5035279;28;20190;-66
2021/06/24 01:02:00;;;;;;;3.73;3.20;;;16.20;99.90;;;;;;5035414;28;20435;-67
2021/06/24 01:04:26;;;;;;;2.50;2.10;;;16.20;99.90;;;;;;5034324;28;20774;-66
2021/06/24 01:06:53;;;;;;;2.40;2.20;;;16.20;99.90;;;;;;5035108;28;20496;-66
2021/06/24 01:09:19;;;;;;;2.97;2.63;;;16.20;99.90;;;;;;5034389;28;20194;-67
2021/06/24 01:11:46;;;;;;;3.10;2.77;;;16.30;99.90;;;;;;5034694;28;20436;-66
2021/06/24 01:14:12;;;;;;;2.40;2.00;;;16.20;99.90;;;;;;5034660;28;20455;-66
2021/06/24 01:16:40;;;;;;;2.63;2.13;;;16.30;99.90;;;;;;5034720;28;20996;-67
2021/06/24 01:19:07;;;;;;;3.13;2.50;;;16.40;99.90;;;;;;5034315;28;20428;-67
2021/06/24 01:21:33;;;;;;;4.07;2.27;;;16.40;99.90;;;;;;5034482;28;21045;-66
2021/06/24 01:23:59;;;;;;;2.70;2.50;;;16.40;99.90;;;;;;5034878;28;20488;-68
2021/06/24 01:26:26;;;;;;;2.40;2.07;;;16.40;99.90;;;;;;5050067;28;20420;-67
2021/06/24 01:28:52;;;;;;;2.80;2.33;;;16.40;99.90;;;;;;5033844;28;20459;-67
2021/06/24 01:31:20;;;;;;;2.93;2.67;;;16.40;99.90;;;;;;5034137;28;20466;-66
2021/06/24 01:33:45;;;;;;;2.70;2.50;;;16.40;99.90;;;;;;5034555;28;20411;-67
2021/06/24 01:36:13;;;;;;;3.80;2.63;;;16.40;99.90;;;;;;5034436;28;20455;-66
2021/06/24 01:38:39;;;;;;;3.97;1.93;;;16.30;99.90;;;;;;5033831;28;20203;-67
2021/06/24 01:41:05;;;;;;;2.23;2.13;;;16.30;99.90;;;;;;5034448;28;20451;-66
2021/06/24 01:43:31;;;;;;;2.57;2.40;;;16.20;99.90;;;;;;5034341;28;20480;-67
2021/06/24 01:45:58;;;;;;;2.67;2.47;;;16.20;99.90;;;;;;5034084;28;20261;-66
2021/06/24 01:48:25;;;;;;;2.00;1.80;;;16.20;99.90;;;;;;5033921;28;20182;-66
2021/06/24 01:50:53;;;;;;;2.20;2.00;;;16.30;99.90;;;;;;5034241;28;20416;-67
2021/06/24 01:53:19;;;;;;;2.60;2.40;;;16.20;99.90;;;;;;5033986;28;20767;-67
2021/06/24 01:55:45;;;;;;;3.00;2.70;;;16.20;99.90;;;;;;5034308;28;20404;-67
2021/06/24 01:58:16;;;;;;;2.30;2.10;;;16.20;99.90;;;;;;5032316;28;20823;-67
2021/06/24 02:00:43;;;;;;;2.27;2.07;;;16.20;99.90;;;;;;5033873;28;20851;-66
2021/06/24 02:03:11;;;;;;;3.93;2.23;;;16.20;99.90;;;;;;5034181;28;20504;-67
2021/06/24 02:05:36;;;;;;;1.97;1.87;;;16.20;99.90;;;;;;5034135;28;20452;-66
2021/06/24 02:08:02;;;;;;;3.23;2.93;;;16.20;99.90;;;;;;5033539;28;20448;-66
2021/06/24 02:10:28;;;;;;;2.57;2.37;;;16.20;99.90;;;;;;5048826;28;20316;-67
2021/06/24 02:12:54;;;;;;;2.00;1.90;;;16.20;99.90;;;;;;5033811;28;20416;-66
2021/06/24 02:15:19;;;;;;;2.23;2.03;;;16.20;99.90;;;;;;5034316;28;20193;-67
2021/06/24 02:17:45;;;;;;;2.30;2.10;;;16.20;99.90;;;;;;5033278;28;20594;-66
2021/06/24 02:20:13;;;;;;;2.63;2.40;;;16.10;99.90;;;;;;5033503;28;20246;-66
2021/06/24 02:22:40;;;;;;;2.43;2.10;;;16.20;99.90;;;;;;5033549;28;20181;-66
2021/06/24 02:25:07;;;;;;;2.13;1.93;;;16.10;99.90;;;;;;5033633;28;20405;-66
2021/06/24 02:27:32;;;;;;;2.60;2.40;;;16.20;99.90;;;;;;5033267;28;20420;-66
2021/06/24 02:29:58;;;;;;;2.47;2.10;;;16.20;99.90;;;;;;5033568;28;20435;-66
2021/06/24 02:32:24;;;;;;;3.20;2.43;;;16.20;99.90;;;;;;5033629;28;20177;-65
2021/06/24 02:34:52;;;;;;;3.03;2.27;;;16.20;99.90;;;;;;5033659;28;20791;-65
2021/06/24 02:37:17;;;;;;;2.60;2.20;;;16.20;99.90;;;;;;5032687;28;20683;-65
2021/06/24 02:39:43;;;;;;;2.87;2.67;;;16.20;99.90;;;;;;5033000;28;20436;-65
2021/06/24 02:42:10;;;;;;;3.40;2.80;;;16.20;99.90;;;;;;5033270;28;20182;-66
2021/06/24 02:44:36;;;;;;;3.47;1.97;;;16.10;99.90;;;;;;5033610;28;20201;-65
2021/06/24 02:47:01;;;;;;;2.17;2.03;;;16.10;99.90;;;;;;5033461;28;20404;-66
2021/06/24 02:49:27;;;;;;;3.10;2.37;;;16.00;99.90;;;;;;5033056;28;20486;-66
2021/06/24 02:51:53;;;;;;;2.80;2.47;;;16.00;99.90;;;;;;5033130;28;20204;-67
2021/06/24 02:54:19;;;;;;;5.13;2.70;;;16.00;99.90;;;;;;5033259;28;20231;-65
2021/06/24 02:56:45;;;;;;;3.30;2.37;;;15.90;99.90;;;;;;5033347;28;20621;-67
2021/06/24 02:59:11;;;;;;;2.60;1.90;;;15.90;99.90;;;;;;5035113;28;20440;-66
2021/06/24 03:01:38;;;;;;;1.90;1.80;;;15.90;99.90;;;;;;5033130;28;20421;-66
2021/06/24 03:04:07;;;;;;;2.40;2.20;;;15.90;99.90;;;;;;5033300;28;20451;-65
2021/06/24 03:06:34;;;;;;;2.03;1.83;;;15.90;99.90;;;;;;5033263;28;20404;-66
2021/06/24 03:09:02;;;;;;;1.83;1.70;;;15.80;99.90;;;;;;5032630;28;20432;-66
2021/06/24 03:11:28;;;;;;;2.93;2.70;;;15.90;99.90;;;;;;5033151;28;20424;-67
2021/06/24 03:13:54;;;;;;;3.07;2.80;;;15.80;99.90;;;;;;5033081;28;20542;-65
2021/06/24 03:16:20;;;;;;;3.40;2.70;;;15.80;99.90;;;;;;5033189;28;20276;-67
2021/06/24 03:18:47;;;;;;;2.20;2.10;;;15.80;99.90;;;;;;5032583;28;20514;-66
2021/06/24 03:21:15;;;;;;;3.20;2.90;;;15.80;99.90;;;;;;5033073;28;20166;-67
2021/06/24 03:23:40;;;;;;;3.90;2.80;;;15.80;99.90;;;;;;5033052;28;20419;-66
2021/06/24 03:26:06;;;;;;;3.37;2.20;;;15.80;99.90;;;;;;5032807;28;20412;-65
2021/06/24 03:28:32;;;;;;;3.07;2.83;;;15.80;99.90;;;;;;5032687;28;20189;-66
2021/06/24 03:30:57;;;;;;;2.77;2.57;;;15.80;99.90;;;;;;5033321;28;20176;-66
2021/06/24 03:33:25;;;;;;;3.30;3.00;;;15.80;99.90;;;;;;5032618;28;20671;-66
2021/06/24 03:35:51;;;;;;;3.20;3.00;;;15.80;99.90;;;;;;5033101;28;20165;-67
2021/06/24 03:38:16;;;;;;;4.30;3.90;;;15.80;99.90;;;;;;5032631;28;20417;-66
2021/06/24 03:40:42;;;;;;;3.33;3.13;;;15.80;99.90;;;;;;5033010;28;20427;-66
2021/06/24 03:43:08;;;;;;;4.00;2.67;;;15.80;99.90;;;;;;5032981;28;20170;-67
2021/06/24 03:45:34;;;;;;;2.60;2.40;;;15.80;99.90;;;;;;5032943;28;20492;-66
2021/06/24 03:47:59;;;;;;;3.30;3.00;;;15.90;99.90;;;;;;5032079;28;20195;-67
2021/06/24 03:50:25;;;;;;;3.20;2.90;;;15.90;99.90;;;;;;5032895;28;20328;-66
2021/06/24 03:52:51;;;;;;;2.67;2.47;;;16.00;99.90;;;;;;5033776;28;20166;-66
2021/06/24 03:55:17;;;;;;;2.33;2.23;;;16.00;99.90;;;;;;5036439;28;20252;-67
2021/06/24 03:57:43;;;;;;;2.63;2.33;;;15.90;99.90;;;;;;5035517;28;20220;-68
2021/06/24 04:00:10;;;;;;;3.50;3.30;;;16.00;99.90;;;;;;5036107;28;20436;-66
2021/06/24 04:02:35;;;;;;;3.20;2.90;;;16.00;99.90;;;;;;5036365;28;20523;-66
2021/06/24 04:05:01;;;;;;;3.83;3.40;;;16.00;99.90;;;;;;5036137;28;20483;-67
2021/06/24 04:07:27;;;;;;;6.23;5.33;;;16.00;99.90;;;;;;5035788;28;20184;-67
2021/06/24 04:09:53;;;;;;;3.67;3.10;;;16.00;99.90;;;;;;5036154;28;20475;-67
2021/06/24 04:12:18;;;;;;;3.17;2.87;;;16.00;99.90;;;;;;5036013;28;20221;-66
2021/06/24 04:14:46;;;;;;;3.43;3.13;;;16.10;99.90;;;;;;5035942;28;20184;-66
2021/06/24 04:17:12;;;;;;;3.47;3.17;;;16.30;99.90;;;;;;5035503;28;20279;-66
2021/06/24 04:19:38;;;;;;;5.80;3.90;;;16.40;99.90;;;;;;5035721;28;20483;-66
2021/06/24 04:22:03;;;;;;;3.30;3.10;;;16.50;99.90;;;;;;5035938;28;20700;-65
2021/06/24 04:24:29;;;;;;;3.67;3.30;;;16.60;99.90;;;;;;5035774;28;20629;-67
2021/06/24 04:26:54;;;;;;;3.30;2.93;;;16.70;99.90;;;;;;5034288;28;20182;-67
2021/06/24 04:29:20;;;;;;;4.00;3.20;;;16.70;99.90;;;;;;5035468;28;20226;-66
2021/06/24 04:31:46;;;;;;;5.07;3.43;;;16.80;99.90;;;;;;5035778;28;20174;-66
2021/06/24 04:34:11;;;;;;;4.40;4.03;;;16.90;99.90;;;;;;5035724;28;20546;-65
2021/06/24 04:36:43;;;;;;;6.17;4.67;;;17.00;99.90;;;;;;5035939;28;20510;-65
2021/06/24 04:39:10;;;;;;;3.87;3.57;;;17.00;99.90;;;;;;5035188;28;20183;-65
2021/06/24 04:41:35;;;;;;;5.40;4.10;;;17.00;99.90;;;;;;5034833;28;20424;-65
2021/06/24 04:44:08;;;;;;;7.03;3.40;;;17.00;99.90;;;;;;5035704;28;20410;-66
2021/06/24 04:46:33;;;;;;;4.60;3.63;;;17.00;99.90;;;;;;5013392;28;20185;-65
2021/06/24 04:49:00;;;;;;;3.17;2.97;;;17.00;99.90;;;;;;5013984;28;20443;-65
2021/06/24 04:51:25;;;;;;;3.93;3.20;;;17.10;99.90;;;;;;5015164;28;20179;-66
2021/06/24 04:53:51;;;;;;;4.17;3.40;;;17.10;99.90;;;;;;5015190;28;20410;-66
2021/06/24 04:56:16;;;;;;;5.07;3.60;;;17.20;99.90;;;;;;5014775;28;20202;-66
2021/06/24 04:58:42;;;;;;;7.80;4.00;;;17.20;99.90;;;;;;5014721;28;20207;-65
2021/06/24 05:01:08;;;;;;;3.33;2.60;;;17.30;99.90;;;;;;5015209;28;20174;-66
2021/06/24 05:03:33;;;;;;;5.87;3.97;;;17.60;99.90;;;;;;5015309;28;20191;-66
2021/06/24 05:06:02;;;;;;;3.57;3.33;;;17.70;99.90;;;;;;5014173;28;20667;-66
2021/06/24 05:08:28;;;;;;;2.67;2.47;;;17.90;99.90;;;;;;5014719;28;20177;-66
2021/06/24 05:10:54;;;;;;;2.83;2.63;;;18.10;99.90;;;;;;5015078;28;20420;-67
2021/06/24 05:13:19;;;;;;;3.10;2.80;;;18.20;99.90;;;;;;5014777;28;20513;-66
2021/06/24 05:15:45;;;;;;;3.83;3.03;;;18.40;99.90;;;;;;5015251;28;20614;-67
2021/06/24 05:18:13;;;;;;;2.93;2.73;;;18.40;99.90;;;;;;5014643;28;20202;-66
2021/06/24 05:20:40;;;;;;;3.20;2.93;;;18.50;99.90;;;;;;5030246;28;20467;-67
2021/06/24 05:23:07;;;;;;;3.00;2.80;;;18.50;99.90;;;;;;5014719;28;20421;-68
2021/06/24 05:25:32;;;;;;;3.50;2.63;;;18.50;99.90;;;;;;5013664;28;20779;-67
2021/06/24 05:27:58;;;;;;;3.20;2.90;;;18.60;99.90;;;;;;5014556;28;20414;-68
2021/06/24 05:30:24;;;;;;;4.90;4.20;;;18.70;99.90;;;;;;5014584;28;20214;-68
2021/06/24 05:32:49;;;;;;;5.53;4.87;;;18.90;99.90;;;;;;5013468;28;20186;-67
2021/06/24 05:35:15;;;;;;;3.23;2.73;;;19.10;99.90;;;;;;5015316;28;20309;-68
2021/06/24 05:37:41;;;;;;;3.97;2.90;;;19.40;99.90;;;;;;5013986;28;20205;-68
2021/06/24 05:40:07;;;;;;;3.30;3.07;;;19.70;99.90;;;;;;5014639;28;20252;-68
2021/06/24 05:42:33;;;;;;;3.17;2.93;;;19.90;99.90;;;;;;5014717;28;20191;-68
2021/06/24 05:44:58;;;;;;;4.80;2.83;;;20.10;99.90;;;;;;5013882;28;20409;-68
2021/06/24 05:47:24;;;;;;;2.80;2.60;;;20.40;99.90;;;;;;5014065;28;20272;-69
2021/06/24 05:49:50;;;;;;;3.57;3.10;;;20.60;99.90;;;;;;5013990;28;20704;-68
2021/06/24 05:52:15;;;;;;;3.10;2.90;;;20.80;99.90;;;;;;5014763;28;20680;-68
2021/06/24 05:54:41;;;;;;;3.00;2.80;;;20.80;99.90;;;;;;5029616;28;20247;-68
2021/06/24 05:57:07;;;;;;;2.70;2.50;;;20.80;99.90;;;;;;5014269;28;20525;-68
2021/06/24 05:59:32;;;;;;;4.10;3.00;;;20.70;99.90;;;;;;5013631;28;20289;-68
2021/06/24 06:01:58;;;;;;;3.40;2.57;;;20.70;99.90;;;;;;5014382;28;20257;-68
2021/06/24 06:04:24;;;;;;;3.23;3.03;;;20.40;99.90;;;;;;5014072;28;20630;-68
2021/06/24 06:06:49;;;;;;;3.20;3.00;;;20.40;99.90;;;;;;5014302;28;20630;-68
2021/06/24 06:09:15;;;;;;;3.10;2.60;;;20.40;99.90;;;;;;5011999;28;20266;-66
2021/06/24 06:11:43;;;;;;;3.00;2.80;;;20.20;99.90;;;;;;5013768;28;20442;-66
2021/06/24 06:14:09;;;;;;;4.17;3.43;;;20.10;99.90;;;;;;5013902;28;20179;-68
2021/06/24 06:16:35;;;;;;;3.50;2.80;;;20.00;99.90;;;;;;5013381;28;20464;-68
2021/06/24 06:19:01;;;;;;;4.27;3.60;;;20.00;99.90;;;;;;5011945;28;20977;-69
2021/06/24 06:21:29;;;;;;;3.80;3.50;;;19.90;99.90;;;;;;5013708;28;20237;-67
2021/06/24 06:23:56;;;;;;;3.73;3.43;;;19.80;99.90;;;;;;5013276;28;20179;-68
2021/06/24 06:26:23;;;;;;;4.33;4.00;;;19.70;99.90;;;;;;5012509;28;20436;-68
2021/06/24 06:28:49;;;;;;;4.27;3.37;;;19.70;99.90;;;;;;5011898;28;20507;-68
2021/06/24 06:31:16;;;;;;;4.23;3.20;;;19.70;99.90;;;;;;5013470;28;20922;-68
2021/06/24 06:33:42;;;;;;;3.37;3.07;;;19.70;99.90;;;;;;5013669;28;20270;-67
2021/06/24 06:36:07;;;;;;;4.93;4.53;;;19.80;99.90;;;;;;5013549;28;20429;-68
2021/06/24 06:38:33;;;;;;;4.97;4.57;;;19.90;99.90;;;;;;5012976;28;20552;-68
2021/06/24 06:40:59;;;;;;;4.37;3.97;;;19.90;99.90;;;;;;5013672;28;20254;-68
2021/06/24 06:43:25;;;;;;;4.23;3.93;;;20.10;99.90;;;;;;5013128;28;20569;-70
2021/06/24 06:45:51;;;;;;;2.87;2.67;;;20.10;99.90;;;;;;5013547;28;20170;-69
2021/06/24 06:48:17;;;;;;;3.67;3.37;;;20.20;99.90;;;;;;5013498;28;20410;-68
2021/06/24 06:50:44;;;;;;;3.77;3.30;;;20.30;99.90;;;;;;5012145;28;20179;-69
2021/06/24 06:53:10;;;;;;;4.07;2.73;;;20.30;99.90;;;;;;5013197;28;20224;-68
2021/06/24 06:55:36;;;;;;;3.60;3.30;;;20.40;99.90;;;;;;5013513;28;20443;-70
2021/06/24 06:58:02;;;;;;;3.90;3.60;;;20.50;99.90;;;;;;5011610;28;20452;-68
2021/06/24 07:00:29;;;;;;;3.73;3.37;;;20.50;99.90;;;;;;5013351;28;20430;-67
2021/06/24 07:02:55;;;;;;;3.20;3.00;;;20.60;99.90;;;;;;5013244;28;20874;-67
2021/06/24 07:05:21;;;;;;;3.90;3.00;;;20.60;99.90;;;;;;5013454;28;20484;-68
2021/06/24 07:07:47;;;;;;;3.40;2.87;;;20.60;99.90;;;;;;5012696;28;20428;-68
2021/06/24 07:10:13;;;;;;;3.60;2.67;;;20.60;99.90;;;;;;5011463;28;20217;-68
2021/06/24 07:12:39;;;;;;;3.20;3.00;;;20.60;99.90;;;;;;5012734;28;20228;-69
2021/06/24 07:15:06;;;;;;;3.50;3.20;;;20.50;99.90;;;;;;5013255;28;20406;-68
2021/06/24 07:17:33;;;;;;;2.50;2.40;;;20.40;99.90;;;;;;5012552;28;20202;-67
2021/06/24 07:19:59;;;;;;;2.67;2.47;;;20.50;99.90;;;;;;5013276;28;20471;-69
2021/06/24 07:22:24;;;;;;;3.17;2.70;;;20.50;99.90;;;;;;5012591;28;20808;-71
2021/06/24 07:24:51;;;;;;;4.77;2.63;;;20.50;99.90;;;;;;5012911;28;20425;-71
2021/06/24 07:27:16;;;;;;;2.73;2.53;;;20.50;99.90;;;;;;5012544;28;20201;-72
2021/06/24 07:29:42;;;;;;;3.00;2.80;;;20.50;99.90;;;;;;5016667;28;20676;-71
2021/06/24 07:32:08;;;;;;;2.90;2.63;;;20.50;99.90;;;;;;5016929;28;20519;-70
2021/06/24 07:34:34;;;;;;;3.10;2.80;;;20.50;99.90;;;;;;5017002;28;20186;-72
2021/06/24 07:37:00;;;;;;;3.10;2.80;;;20.60;99.90;;;;;;5015353;28;20487;-72
2021/06/24 07:39:26;;;;;;;2.73;2.53;;;20.80;99.90;;;;;;5016512;28;20881;-70
2021/06/24 07:41:52;;;;;;;2.57;2.37;;;20.90;99.90;;;;;;5016536;28;20618;-67
2021/06/24 07:44:17;;;;;;;2.63;2.43;;;21.00;99.90;;;;;;5016703;28;20417;-66
2021/06/24 07:46:44;;;;;;;2.47;2.27;;;20.90;99.90;;;;;;5016695;28;20182;-67
2021/06/24 07:49:10;;;;;;;2.80;2.60;;;20.90;99.90;;;;;;5016114;28;20253;-68
2021/06/24 07:51:36;;;;;;;2.50;2.40;;;21.00;99.90;;;;;;5016592;28;20421;-68
2021/06/24 07:54:02;;;;;;;3.90;3.03;;;21.00;99.90;;;;;;5016139;28;20171;-68
2021/06/24 07:56:28;;;;;;;2.50;2.30;;;21.00;99.90;;;;;;5016236;28;20199;-68
2021/06/24 07:58:53;;;;;;;2.77;2.57;;;20.90;99.90;;;;;;5014111;28;20460;-68
2021/06/24 08:01:19;;;;;;;2.90;2.70;;;20.90;99.90;;;;;;5031555;28;20230;-68
2021/06/24 08:03:45;;;;;;;3.20;2.90;;;20.80;99.90;;;;;;5015310;28;20191;-68
2021/06/24 08:06:11;;;;;;;2.73;2.40;;;20.80;99.90;;;;;;5015864;28;20429;-71
2021/06/24 08:08:37;;;;;;;3.13;2.83;;;20.90;99.90;;;;;;5015262;28;20191;-68
2021/06/24 08:11:03;;;;;;;3.13;2.83;;;20.80;99.90;;;;;;5015971;28;20218;-69
2021/06/24 08:13:29;;;;;;;2.90;2.70;;;20.80;99.90;;;;;;5015542;28;20548;-69
2021/06/24 08:15:56;;;;;;;3.00;2.73;;;20.70;99.90;;;;;;5016176;28;20489;-69
2021/06/24 08:18:22;;;;;;;2.90;2.70;;;20.70;99.90;;;;;;5015247;28;20262;-68
2021/06/24 08:20:48;;;;;;;3.30;3.00;;;20.80;99.90;;;;;;5014624;28;20417;-71
2021/06/24 08:23:14;;;;;;;3.77;3.47;;;20.90;99.90;;;;;;5015372;28;20422;-72
2021/06/24 08:25:40;;;;;;;3.00;2.80;;;21.10;99.90;;;;;;5015843;28;20445;-69
2021/06/24 08:28:06;;;;;;;3.73;3.43;;;21.40;99.90;;;;;;5014899;28;20463;-70
2021/06/24 08:30:32;;;;;;;3.17;2.40;;;22.30;99.90;;;;;;5014590;28;20194;-71
2021/06/24 08:32:58;;;;;;;4.50;2.60;;;23.60;99.90;;;;;;5015563;28;20488;-75
2021/06/24 08:35:24;;;;;;;3.77;2.80;;;24.80;99.90;;;;;;5015545;28;20432;-77
2021/06/24 08:37:49;;;;;;;2.70;2.50;;;25.90;99.90;;;;;;5014625;28;20487;-75
2021/06/24 08:40:16;;;;;;;2.57;2.47;;;27.20;99.90;;;;;;5014817;28;20604;-76
2021/06/24 08:42:42;;;;;;;2.73;2.53;;;28.60;99.90;;;;;;5013965;28;20394;-79
2021/06/24 08:45:11;;;;;;;3.00;2.80;;;30.20;99.90;;;;;;5008280;28;20408;-74
2021/06/24 08:47:37;;;;;;;2.93;2.73;;;31.20;95.40;;;;;;5015369;28;20493;-73
2021/06/24 08:50:04;;;;;;;2.30;2.10;;;31.60;93.00;;;;;;5015244;28;20433;-74
2021/06/24 08:52:30;;;;;;;3.10;2.67;;;31.40;91.00;;;;;;4996039;28;20864;-73
2021/06/24 08:54:55;;;;;;;2.53;2.33;;;30.90;90.60;;;;;;4995872;28;20411;-74
2021/06/24 08:57:21;;;;;;;2.40;2.30;;;30.10;91.80;;;;;;5014780;28;20628;-73
2021/06/24 08:59:47;;;;;;;2.47;2.30;;;29.70;90.80;;;;;;5015125;28;20203;-74
2021/06/24 09:02:15;;;;;;;2.53;2.40;;;29.30;91.20;;;;;;5015123;28;20225;-72
2021/06/24 09:04:46;;;;;;;2.30;2.20;;;28.70;93.00;;;;;;5015457;28;20774;-73
2021/06/24 09:07:21;;;;;;;2.60;2.40;;;28.40;93.40;;;;;;5014469;28;20433;-72
2021/06/24 09:09:57;;;;;;;2.90;2.70;;;27.90;94.30;;;;;;5015027;28;20506;-72
2021/06/24 09:12:25;;;;;;;3.07;2.13;;;27.70;95.30;;;;;;5012291;28;20409;-73
2021/06/24 09:14:55;;;;;;;2.20;2.10;;;27.70;95.50;;;;;;5013988;28;20406;-74
2021/06/24 09:17:43;;;;;;;2.27;2.10;;;28.10;95.60;;;;;;5012981;28;20515;-74
2021/06/24 09:20:24;;;;;;;2.17;2.07;;;29.20;94.50;;;;;;5012914;28;20413;-72
2021/06/24 09:23:09;;;;;;;2.67;2.53;;;30.30;91.00;;;;;;5014170;28;20414;-74
2021/06/24 09:25:39;;;;;;;2.73;2.53;;;30.80;91.60;;;;;;5013718;28;21908;-73
2021/06/24 09:28:05;;;;;;;3.03;2.83;;;30.80;92.10;;;;;;5013661;28;20491;-73
2021/06/24 09:30:35;;;;;;;2.73;2.53;;;30.80;91.20;;;;;;5013324;28;20412;-74
2021/06/24 09:33:11;;;;;;;3.13;2.90;;;30.90;91.60;;;;;;5013795;28;20489;-74
2021/06/24 09:35:39;;;;;;;3.00;2.80;;;30.70;91.10;;;;;;5012492;28;20491;-74
2021/06/24 09:38:07;;;;;;;2.40;2.30;;;30.20;91.00;;;;;;5014001;28;20738;-74
2021/06/24 09:40:38;;;;;;;2.43;2.33;;;29.70;90.80;;;;;;5012987;28;20463;-73
2021/06/24 09:43:04;;;;;;;2.53;2.43;;;29.10;93.10;;;;;;5014662;28;20406;-74
2021/06/24 09:45:30;;;;;;;2.80;2.60;;;28.50;94.20;;;;;;5013926;28;20422;-74
2021/06/24 09:48:12;;;;;;;2.80;2.60;;;28.00;95.40;;;;;;5012712;28;20179;-73
2021/06/24 09:50:38;;;;;;;5.10;4.70;;;27.70;95.60;;;;;;5013701;28;20198;-74
2021/06/24 09:53:12;;;;;;;5.83;5.33;;;27.40;96.40;;;;;;5014396;28;20475;-75
2021/06/24 09:55:38;;;;;;;2.83;2.70;;;27.20;96.10;;;;;;5014679;28;20962;-75
2021/06/24 09:58:12;;;;;;;3.30;3.00;;;27.20;96.70;;;;;;5013944;28;20464;-74
2021/06/24 10:00:52;;;;;;;2.47;2.37;;;27.70;97.30;;;;;;5013775;28;20401;-76
2021/06/24 10:03:18;;;;;;;2.30;2.10;;;28.00;94.60;;;;;;5014155;28;20746;-74
2021/06/24 10:05:44;;;;;;;2.50;2.40;;;28.30;94.70;;;;;;5014294;28;20393;-74
2021/06/24 10:08:11;;;;;;;2.97;2.77;;;28.80;96.40;;;;;;5014080;28;20553;-74
2021/06/24 10:10:40;;;;;;;2.50;2.30;;;28.80;94.90;;;;;;5014138;28;20436;-75
2021/06/24 10:13:06;;;;;;;2.37;2.23;;;28.60;94.60;;;;;;5013687;28;20426;-74
2021/06/24 10:15:33;;;;;;;2.40;2.30;;;28.30;91.20;;;;;;5012886;28;20417;-75
2021/06/24 10:17:59;;;;;;;3.00;2.80;;;28.50;93.10;;;;;;5013687;28;20431;-73
2021/06/24 10:20:28;;;;;;;2.20;2.10;;;29.00;92.00;;;;;;5013708;28;20417;-73
2021/06/24 10:23:10;;;;;;;2.87;2.67;;;29.10;92.20;;;;;;5012498;28;20898;-73
2021/06/24 10:25:39;;;;;;;2.43;2.33;;;28.90;92.80;;;;;;5014062;28;20377;-75
2021/06/24 10:28:05;;;;;;;2.70;2.50;;;28.60;93.70;;;;;;5013572;28;20467;-72
2021/06/24 10:30:39;;;;;;;3.90;3.60;;;28.60;92.50;;;;;;5013591;28;20404;-73
2021/06/24 10:33:08;;;;;;;3.07;2.87;;;29.40;93.30;;;;;;5013964;28;20402;-75
2021/06/24 10:35:38;;;;;;;3.20;3.00;;;29.80;91.00;;;;;;5012049;28;20957;-73
2021/06/24 10:38:06;;;;;;;2.90;2.70;;;29.80;91.00;;;;;;5013185;28;20502;-74
2021/06/24 10:40:34;;;;;;;2.50;2.40;;;29.80;91.20;;;;;;5013581;28;20407;-73
2021/06/24 10:43:10;;;;;;;2.40;2.30;;;29.40;90.10;;;;;;5028541;28;20760;-74
2021/06/24 10:45:37;;;;;;;2.23;2.13;;;29.10;89.90;;;;;;5013839;28;20372;-74
2021/06/24 10:48:22;;;;;;;3.10;2.90;;;28.70;92.40;;;;;;5013055;28;20384;-74
2021/06/24 10:50:56;;;;;;;2.80;2.60;;;28.50;90.70;;;;;;5009176;28;20736;-75
2021/06/24 10:53:21;;;;;;;2.47;2.27;;;28.40;93.70;;;;;;4994244;28;20414;-75
2021/06/24 10:55:50;;;;;;;2.70;2.50;;;28.60;94.20;;;;;;5009150;28;20389;-73
2021/06/24 10:58:26;;;;;;;2.30;2.20;;;28.80;93.30;;;;;;4992518;28;20554;-73
2021/06/24 11:00:57;;;;;;;5.60;2.33;;;29.00;93.60;;;;;;4994414;28;20434;-76
2021/06/24 11:03:40;;;;;;;3.13;2.83;;;28.90;91.50;;;;;;5002237;28;20516;-73
2021/06/24 11:06:24;;;;;;;2.80;2.60;;;28.70;91.60;;;;;;5018446;28;20872;-74
2021/06/24 11:09:12;;;;;;;2.93;2.70;;;28.40;93.60;;;;;;5017071;28;20455;-74
2021/06/24 11:11:43;;;;;;;2.03;1.93;;;28.30;93.20;;;;;;5017404;28;20421;-72
2021/06/24 11:14:16;;;;;;;2.30;2.20;;;28.30;92.00;;;;;;5016468;28;20464;-72
2021/06/24 11:16:43;;;;;;;2.77;2.57;;;28.40;93.10;;;;;;5032438;28;20793;-73
2021/06/24 11:19:11;;;;;;;3.10;2.80;;;28.40;91.50;;;;;;5016898;28;20416;-74
2021/06/24 11:21:37;;;;;;;2.30;2.20;;;28.30;90.80;;;;;;5017132;28;20398;-73
2021/06/24 11:24:05;;;;;;;2.10;2.00;;;28.00;92.10;;;;;;5017389;28;20402;-73
2021/06/24 11:26:34;;;;;;;2.70;2.50;;;27.80;92.50;;;;;;5016547;28;20167;-73
2021/06/24 11:31:53;;;;;;;1.80;1.70;;;27.30;91.40;;;;;;5017139;28;20472;-74
2021/06/24 11:37:17;;;;;;;1.40;1.40;;;27.30;90.40;;;;;;5016663;28;20443;-73
2021/06/24 11:39:49;;;;;;;1.77;1.67;;;27.10;92.30;;;;;;5017131;28;20786;-73
2021/06/24 11:42:18;;;;;;;2.10;2.00;;;27.10;92.30;;;;;;5016694;28;20391;-72
2021/06/24 11:44:48;;;;;;;1.90;1.80;;;27.00;91.40;;;;;;5016778;28;20414;-72
2021/06/24 11:47:32;;;;;;;3.03;2.10;;;26.80;92.40;;;;;;5016580;28;20838;-73
2021/06/24 12:04:16;;;;;;;2.27;2.17;;;25.90;93.30;;;;;;5016417;28;20421;-72
2021/06/24 12:06:52;;;;;;;1.53;1.43;;;26.00;94.20;;;;;;4998848;28;20426;-73
2021/06/24 12:09:22;;;;;;;1.80;1.70;;;26.10;94.40;;;;;;5015714;28;20781;-72
2021/06/24 12:11:59;;;;;;;2.30;1.83;;;26.10;93.60;;;;;;5016187;28;20417;-73
2021/06/24 12:14:32;;;;;;;1.80;1.70;;;26.10;94.30;;;;;;5015164;28;20488;-72
2021/06/24 12:17:13;;;;;;;2.27;2.17;;;26.10;92.90;;;;;;5016012;28;20454;-73
2021/06/24 12:19:48;;;;;;;2.00;1.90;;;25.90;94.00;;;;;;5016007;28;20420;-72
2021/06/24 12:22:17;;;;;;;1.90;1.80;;;25.70;93.80;;;;;;5016090;28;20372;-73
2021/06/24 12:24:44;;;;;;;1.83;1.73;;;25.40;95.30;;;;;;5015432;28;20516;-72
2021/06/24 12:27:15;;;;;;;2.03;1.93;;;25.30;94.50;;;;;;5015623;28;20409;-73
2021/06/24 12:29:41;;;;;;;2.33;2.13;;;25.20;95.00;;;;;;5015676;28;20430;-72
2021/06/24 12:32:07;;;;;;;1.90;1.80;;;25.10;96.50;;;;;;5015579;28;20452;-73
2021/06/24 12:34:33;;;;;;;1.90;1.80;;;25.10;96.90;;;;;;5015761;28;20413;-74
2021/06/24 12:36:59;;;;;;;2.23;2.03;;;25.00;97.50;;;;;;5015886;28;20444;-69
2021/06/24 12:39:24;;;;;;;2.70;2.10;;;25.00;98.50;;;;;;5015137;28;20198;-73
2021/06/24 12:41:51;;;;;;;2.20;2.10;;;24.90;98.00;;;;;;5015610;28;20178;-72
2021/06/24 12:44:17;;;;;;;2.20;1.73;;;24.90;97.90;;;;;;5015773;28;20258;-72
2021/06/24 12:46:43;;;;;;;1.70;1.60;;;25.00;97.60;;;;;;5015419;28;20449;-73
2021/06/24 12:49:17;;;;;;;1.90;1.80;;;25.20;96.00;;;;;;5013981;28;20434;-73
2021/06/24 12:51:44;;;;;;;1.80;1.70;;;25.40;95.50;;;;;;5015532;28;20181;-73
2021/06/24 12:54:18;;;;;;;2.03;1.93;;;25.60;96.40;;;;;;5015821;28;20776;-74
2021/06/24 12:56:47;;;;;;;2.87;1.80;;;25.70;97.60;;;;;;5015444;28;20499;-74
2021/06/24 12:59:19;;;;;;;2.83;2.63;;;25.90;97.30;;;;;;5013649;28;20406;-72
2021/06/24 13:01:46;;;;;;;2.17;2.07;;;26.20;96.50;;;;;;5013096;28;20393;-73
2021/06/24 13:04:20;;;;;;;1.80;1.70;;;26.70;95.80;;;;;;5013445;28;20399;-73
2021/06/24 13:06:47;;;;;;;1.47;1.37;;;27.10;93.30;;;;;;5015053;28;20425;-71
2021/06/24 13:09:18;;;;;;;1.30;1.30;;;27.30;91.40;;;;;;5014273;28;20443;-72